Grand Junction Regional Airport
KGJT : now visible

Airfield :











YOU CAN JOIN US ON...

 
LOGIN :

Register | Disclaimer

   EN    FR    IT 

 









Legend :    VFR   Marginal VFR   IFR   Intensive IFR   Very Intensive IFR
Visi :
Ceiling :
>= 8 km
>= 3000ft
5 to 8 km
1000 to 3000 ft
1500m to 5 km
500 to 1000 ft
800 to 1500m
200 to 500 ft
< 800m
< 200 ft
Symbols :   Thunderstorms  Fog  Heavy snow  Heavy precipitations  Wind > 20 kt






- Airport Elevation : 4858 ft
- IATA code : GJT


KGJT - Grand Junction Regional

CURRENT METAR :
  • 070153Z 06004KT 10SM CLR 02/M01 A3007 RMK AO2 SLP184 T00221006

EXPIRED METARs :
  • 070053Z 16003KT 10SM FEW095 04/M01 A3006 RMK AO2 SLP176 T00441006
  • 062353Z 00000KT 10SM BKN090 06/M01 A3005 RMK AO2 SLP171 60000 T00561011 10061 20033 53008

TAF KGJT
Valid from the 07 at 00:00 until the 08 at 00:00 UTC


062340Z 0700/0724 08004KT P6SM SCT040 BKN100
FM070300 04003KT P6SM OVC050
FM071300 10006KT P6SM -SHRASN OVC020
FM071600 12006KT P6SM -SHRASN OVC010
FM072000 11006KT P6SM -SHRA BKN015
KZDV FIR / North America



MET'MAP, your aeronautical weather chart ! - Copyright ORBIFLY December 2007 - Disclaimer

ORBIFLY MET'MAP TEAM :

Programming & Development : Alexandra Zaïnal
Original concept : Baudouin d'Aumeries
Technical & hardware support : Manuel Goepfert
Assistance : Marc-Olivier Méhu




SOURCES & CREDITS :

   NOAA       Earth
Advisory